Time;durP1;ratioP1;P1;durP2;ratioP2;P2;SDS_P1;SDS_P2;PMS_P1;PMS_P2;Temp;Humidity;BMP_temperature;BMP_pressure;BME280_temperature;BME280_humidity;BME280_pressure;Samples;Min_cycle;Max_cycle;Signal;HPM_P1;HPM_P2
2022/09/04 00:01:19;;;;;;;0.38;0.38;;;;;;;17.06;68.00;99787.72;5074530;28;20485;-61
2022/09/04 00:03:56;;;;;;;0.60;0.60;;;;;;;17.06;68.11;99789.50;5074440;28;20044;-61
2022/09/04 00:06:31;;;;;;;0.73;0.73;;;;;;;17.03;67.87;99798.16;5074457;28;20041;-61
2022/09/04 00:09:10;;;;;;;0.80;0.80;;;;;;;17.01;67.82;99797.31;5074126;28;20055;-63
2022/09/04 00:11:48;;;;;;;0.73;0.73;;;;;;;17.04;68.14;99798.97;5074405;28;20072;-62
2022/09/04 00:14:22;;;;;;;0.70;0.70;;;;;;;17.09;67.85;99804.88;5074523;28;20409;-61
2022/09/04 00:16:59;;;;;;;1.13;1.02;;;;;;;17.11;68.06;99803.94;5074509;28;20067;-61
2022/09/04 00:19:36;;;;;;;1.10;0.88;;;;;;;17.12;67.88;99800.50;5073934;28;20064;-61
2022/09/04 00:22:15;;;;;;;0.50;0.50;;;;;;;17.16;67.95;99807.25;5074188;28;20072;-61
2022/09/04 00:24:52;;;;;;;0.68;0.68;;;;;;;17.15;67.76;99800.44;5074184;28;20131;-61
2022/09/04 00:27:25;;;;;;;0.57;0.50;;;;;;;17.15;67.88;99805.59;5074200;28;20052;-62
2022/09/04 00:30:02;;;;;;;1.10;1.00;;;;;;;17.19;67.71;99807.19;5074060;28;20055;-62
2022/09/04 00:32:40;;;;;;;0.85;0.85;;;;;;;17.21;67.61;99792.50;5073785;28;20049;-61
2022/09/04 00:35:15;;;;;;;1.27;1.08;;;;;;;17.21;67.74;99809.72;5073777;28;20086;-61
2022/09/04 00:37:51;;;;;;;1.10;0.98;;;;;;;17.17;67.91;99797.78;5074059;28;20478;-61
2022/09/04 00:40:29;;;;;;;0.60;0.60;;;;;;;17.20;67.62;99803.69;5073716;28;20051;-62
2022/09/04 00:43:29;;;;;;;1.17;0.93;;;;;;;17.22;68.00;99801.09;5073857;28;20117;-61
2022/09/04 00:46:17;;;;;;;1.10;0.90;;;;;;;17.22;67.83;99796.81;5073979;28;20120;-62
2022/09/04 00:49:08;;;;;;;1.23;0.90;;;;;;;17.27;67.92;99796.69;5074221;28;20051;-62
2022/09/04 00:51:44;;;;;;;0.55;0.55;;;;;;;17.29;67.80;99808.66;5073491;28;20044;-62
2022/09/04 00:54:35;;;;;;;0.80;0.80;;;;;;;17.31;67.69;99804.28;5073458;28;20041;-60
2022/09/04 00:57:28;;;;;;;0.80;0.70;;;;;;;17.31;67.72;99806.88;5074675;28;20044;-61
2022/09/04 01:00:09;;;;;;;0.55;0.55;;;;;;;17.28;67.83;99811.25;5060952;28;20041;-61
2022/09/04 01:02:57;;;;;;;0.65;0.65;;;;;;;17.22;67.90;99809.69;5073913;28;20120;-61
2022/09/04 01:05:44;;;;;;;0.50;0.50;;;;;;;17.21;67.99;99805.41;5073630;28;20047;-61
2022/09/04 01:08:27;;;;;;;0.60;0.60;;;;;;;17.22;68.11;99807.13;5073209;28;20072;-63
2022/09/04 01:11:14;;;;;;;0.98;0.90;;;;;;;17.23;68.17;99810.53;5073642;28;20078;-61
2022/09/04 01:13:47;;;;;;;1.23;1.08;;;;;;;17.27;68.30;99814.72;5073365;28;20059;-61
2022/09/04 01:16:25;;;;;;;0.60;0.60;;;;;;;17.28;68.44;99814.69;5073385;28;20068;-61
2022/09/04 01:19:01;;;;;;;0.70;0.70;;;;;;;17.25;68.30;99807.00;5073338;28;20052;-61
2022/09/04 01:21:56;;;;;;;0.73;0.65;;;;;;;17.30;68.30;99804.31;5073291;28;20052;-62
2022/09/04 01:24:42;;;;;;;0.70;0.68;;;;;;;17.28;68.36;99812.09;5073233;28;20086;-61
2022/09/04 01:27:20;;;;;;;0.75;0.75;;;;;;;17.29;68.23;99818.97;5073205;28;20052;-61
2022/09/04 01:29:59;;;;;;;0.50;0.50;;;;;;;17.28;68.51;99806.09;5073434;28;20076;-61
2022/09/04 01:32:32;;;;;;;;;;;;;;;17.26;68.46;99802.72;5073626;28;20037;-61
2022/09/04 01:35:11;;;;;;;1.10;0.70;;;;;;;17.28;68.65;99806.94;5073372;28;20361;-61
2022/09/04 01:37:50;;;;;;;0.50;0.50;;;;;;;17.31;68.50;99812.03;5073186;28;20102;-62
2022/09/04 01:40:30;;;;;;;0.73;0.68;;;;;;;17.30;68.32;99807.75;5076213;28;20056;-62
2022/09/04 01:43:10;;;;;;;2.22;0.98;;;;;;;17.30;68.46;99805.16;5077186;28;20490;-62
2022/09/04 01:45:59;;;;;;;0.40;0.40;;;;;;;17.30;68.25;99815.47;5077052;28;20067;-61
2022/09/04 01:48:36;;;;;;;0.50;0.50;;;;;;;17.32;68.46;99820.63;5076831;28;20048;-61
2022/09/04 01:51:15;;;;;;;0.52;0.52;;;;;;;17.31;68.25;99817.19;5076702;28;20044;-63
2022/09/04 01:53:51;;;;;;;0.70;0.70;;;;;;;17.31;68.19;99822.34;5076844;28;20049;-61
2022/09/04 01:56:29;;;;;;;0.50;0.50;;;;;;;17.31;68.10;99826.66;5076519;28;20508;-61
2022/09/04 01:59:07;;;;;;;0.70;0.70;;;;;;;17.32;67.87;99816.28;5076562;28;20055;-61
2022/09/04 02:01:41;;;;;;;0.60;0.60;;;;;;;17.29;67.85;99818.13;5076811;28;20421;-62
2022/09/04 02:04:20;;;;;;;0.50;0.50;;;;;;;17.30;67.91;99820.66;5076877;28;20573;-62
2022/09/04 02:06:57;;;;;;;1.15;1.05;;;;;;;17.28;68.13;99821.56;5076194;28;20083;-61
2022/09/04 02:09:36;;;;;;;0.80;0.80;;;;;;;17.26;68.10;99819.03;5076720;28;20044;-61
2022/09/04 02:12:20;;;;;;;1.25;1.15;;;;;;;17.30;67.98;99814.63;5076309;28;20128;-61
2022/09/04 02:15:02;;;;;;;0.75;0.73;;;;;;;17.31;68.05;99818.91;5076347;28;20064;-61
2022/09/04 02:17:40;;;;;;;0.60;0.60;;;;;;;17.30;68.25;99820.66;5076245;28;20049;-61
2022/09/04 02:20:21;;;;;;;1.13;0.80;;;;;;;17.28;68.06;99809.53;5076496;28;20059;-61
2022/09/04 02:23:04;;;;;;;0.50;0.50;;;;;;;17.34;68.03;99805.94;5076205;28;20483;-61
2022/09/04 02:25:41;;;;;;;0.50;0.50;;;;;;;17.39;67.77;99810.13;5076468;28;20053;-61
2022/09/04 02:28:23;;;;;;;0.50;0.50;;;;;;;17.39;67.63;99810.13;5076311;28;20048;-61
2022/09/04 02:31:01;;;;;;;0.70;0.70;;;;;;;17.42;67.95;99815.16;5076638;28;20059;-62
2022/09/04 02:33:38;;;;;;;0.45;0.45;;;;;;;17.44;67.68;99808.22;5076368;28;20556;-61
2022/09/04 02:36:13;;;;;;;0.50;0.50;;;;;;;17.44;67.77;99805.66;5075993;28;20053;-62
2022/09/04 02:38:52;;;;;;;0.75;0.75;;;;;;;17.43;67.78;99805.69;5076108;28;20135;-61
2022/09/04 02:41:27;;;;;;;1.27;1.05;;;;;;;17.47;67.54;99801.31;5076220;28;20201;-62
2022/09/04 02:44:10;;;;;;;2.80;0.90;;;;;;;17.48;67.52;99803.00;5075800;28;20052;-62
2022/09/04 02:46:52;;;;;;;0.75;0.75;;;;;;;17.47;67.45;99806.47;5075728;28;20080;-62
2022/09/04 02:49:32;;;;;;;1.73;1.25;;;;;;;17.46;67.53;99804.78;5076027;28;20045;-61
2022/09/04 02:52:15;;;;;;;1.13;0.95;;;;;;;17.46;67.50;99809.94;5075855;28;20537;-61
2022/09/04 02:55:03;;;;;;;0.93;0.70;;;;;;;17.53;67.68;99811.50;5075976;28;20068;-60
2022/09/04 02:57:49;;;;;;;0.95;0.75;;;;;;;17.50;67.74;99811.53;5075811;28;20053;-61
2022/09/04 03:00:20;;;;;;;0.70;0.70;;;;;;;17.52;67.69;99812.38;5075554;28;20072;-60
2022/09/04 03:03:00;;;;;;;0.73;0.73;;;;;;;17.54;67.45;99813.19;5076072;28;20052;-61
2022/09/04 03:05:33;;;;;;;1.20;0.80;;;;;;;17.57;67.89;99813.09;5075493;28;20052;-62
2022/09/04 03:08:11;;;;;;;0.60;0.60;;;;;;;17.54;68.16;99811.44;5075295;28;20371;-61
2022/09/04 03:10:47;;;;;;;0.63;0.63;;;;;;;17.51;67.54;99815.81;5075297;28;20049;-61
2022/09/04 03:13:23;;;;;;;0.50;0.50;;;;;;;17.54;67.96;99820.94;5075479;28;20391;-62
2022/09/04 03:15:57;;;;;;;0.70;0.70;;;;;;;17.53;67.66;99816.66;5075228;28;20079;-61
2022/09/04 03:18:35;;;;;;;0.77;0.77;;;;;;;17.50;67.70;99817.56;5075040;28;20127;-61
2022/09/04 03:21:09;;;;;;;0.60;0.60;;;;;;;17.49;68.05;99820.19;5075124;28;20087;-61
2022/09/04 03:23:43;;;;;;;3.97;1.70;;;;;;;17.53;67.81;99821.81;5076157;28;20439;-61
2022/09/04 03:26:20;;;;;;;1.02;0.93;;;;;;;17.53;67.89;99811.50;5074982;28;20044;-61
2022/09/04 03:29:02;;;;;;;0.88;0.82;;;;;;;17.50;68.02;99811.53;5074833;28;20049;-61
2022/09/04 03:31:40;;;;;;;0.57;0.57;;;;;;;17.50;67.76;99808.94;5074770;28;20135;-61
2022/09/04 03:34:28;;;;;;;1.48;1.38;;;;;;;17.49;68.05;99812.44;5075155;28;20041;-60
2022/09/04 03:37:15;;;;;;;0.80;0.77;;;;;;;17.51;67.96;99818.41;5075329;28;20042;-61
2022/09/04 03:39:58;;;;;;;0.70;0.70;;;;;;;17.52;68.16;99823.56;5074548;28;20045;-62
2022/09/04 03:42:35;;;;;;;0.50;0.50;;;;;;;17.55;67.82;99826.06;5074717;28;20051;-62
2022/09/04 03:45:19;;;;;;;0.50;0.50;;;;;;;17.55;68.19;99830.38;5074894;28;20040;-61
2022/09/04 03:48:04;;;;;;;0.50;0.50;;;;;;;17.55;68.22;99835.53;5074523;28;20123;-62
2022/09/04 03:50:44;;;;;;;1.33;0.80;;;;;;;17.56;68.23;99837.22;5074523;28;20078;-61
2022/09/04 03:53:22;;;;;;;0.57;0.57;;;;;;;17.54;68.19;99834.66;5074726;28;20470;-61
2022/09/04 03:56:13;;;;;;;1.10;1.00;;;;;;;17.56;68.48;99842.41;5074385;28;20084;-61
2022/09/04 03:58:49;;;;;;;1.08;0.93;;;;;;;17.54;68.74;99837.25;5075200;28;20462;-61
2022/09/04 04:01:28;;;;;;;0.57;0.57;;;;;;;17.54;68.62;99839.84;5073989;28;20052;-61
2022/09/04 04:04:36;;;;;;;0.63;0.60;;;;;;;17.52;68.70;99840.75;5074520;28;20090;-61
2022/09/04 04:07:16;;;;;;;0.80;0.80;;;;;;;17.54;68.98;99844.19;5074486;28;20056;-61
2022/09/04 04:10:05;;;;;;;0.40;0.40;;;;;;;17.52;69.05;99840.75;5074316;28;20139;-61
2022/09/04 04:12:58;;;;;;;1.23;0.80;;;;;;;17.53;69.14;99842.47;5074258;28;20049;-61
2022/09/04 04:15:37;;;;;;;0.55;0.55;;;;;;;17.54;69.16;99841.59;5074414;28;20045;-61
2022/09/04 04:18:17;;;;;;;;;;;;;;;17.52;69.25;99851.09;5074439;28;20049;-61
2022/09/04 04:20:56;;;;;;;0.70;0.70;;;;;;;17.52;69.23;99851.09;5074168;28;20281;-61
2022/09/04 04:23:55;;;;;;;0.40;0.40;;;;;;;17.51;69.22;99845.06;5073952;28;20052;-61
2022/09/04 04:26:39;;;;;;;1.20;1.10;;;;;;;17.49;69.13;99853.75;5074168;28;20082;-62
2022/09/04 04:29:39;;;;;;;1.33;1.23;;;;;;;17.46;69.37;99854.66;5074225;28;20360;-62
2022/09/04 04:32:24;;;;;;;0.70;0.63;;;;;;;17.43;69.60;99849.56;5073563;28;20499;-62
2022/09/04 04:35:16;;;;;;;0.50;0.50;;;;;;;17.41;69.38;99862.53;5073770;28;20135;-62
2022/09/04 04:38:02;;;;;;;0.40;0.40;;;;;;;17.44;69.51;99864.19;5073728;28;20044;-62
2022/09/04 04:40:53;;;;;;;1.00;0.70;;;;;;;17.44;69.66;99870.16;5074002;28;20051;-62
2022/09/04 04:43:33;;;;;;;0.50;0.50;;;;;;;17.44;69.73;99875.31;5071172;28;20052;-61
2022/09/04 04:46:12;;;;;;;0.60;0.60;;;;;;;17.43;69.54;99873.66;5073727;28;20101;-61
2022/09/04 04:49:06;;;;;;;0.80;0.80;;;;;;;17.48;69.61;99875.25;5074054;28;20075;-61
2022/09/04 04:51:52;;;;;;;2.05;0.50;;;;;;;17.49;69.78;99876.97;5074100;28;20127;-61
2022/09/04 04:54:41;;;;;;;0.55;0.55;;;;;;;17.48;69.84;99885.56;5073582;28;20056;-61
2022/09/04 04:57:22;;;;;;;0.68;0.68;;;;;;;17.49;69.68;99884.72;5073880;28;20070;-61
2022/09/04 05:00:06;;;;;;;0.73;0.73;;;;;;;17.50;69.72;99889.81;5073832;28;20233;-61
2022/09/04 05:02:42;;;;;;;0.50;0.50;;;;;;;17.50;69.92;99889.81;5073350;28;20483;-61
2022/09/04 05:05:21;;;;;;;0.60;0.60;;;;;;;17.52;70.54;99897.53;5073479;28;20059;-61
2022/09/04 05:07:59;;;;;;;1.05;0.95;;;;;;;17.56;70.24;99899.19;5073548;28;20060;-61
2022/09/04 05:10:41;;;;;;;0.60;0.60;;;;;;;17.55;70.26;99907.78;5073744;28;20114;-61
2022/09/04 05:13:22;;;;;;;0.55;0.55;;;;;;;17.63;70.08;99905.88;5073232;28;20040;-61
2022/09/04 05:15:59;;;;;;;0.50;0.50;;;;;;;17.64;70.21;99907.56;5077241;28;20041;-61
2022/09/04 05:18:47;;;;;;;0.52;0.52;;;;;;;17.66;70.64;99916.13;5078088;28;20475;-61
2022/09/04 05:21:23;;;;;;;0.80;0.80;;;;;;;17.69;70.56;99921.19;5078302;28;20127;-61
2022/09/04 05:23:59;;;;;;;0.60;0.60;;;;;;;17.69;70.56;99918.63;5077253;28;20052;-61
2022/09/04 05:26:38;;;;;;;0.70;0.70;;;;;;;17.69;70.42;99921.19;5077602;28;20044;-62
2022/09/04 05:29:14;;;;;;;0.73;0.73;;;;;;;17.64;70.96;99933.38;5077569;28;20055;-62
2022/09/04 05:31:51;;;;;;;1.13;0.85;;;;;;;17.61;71.23;99934.28;5077496;28;20074;-62
2022/09/04 05:34:29;;;;;;;0.47;0.47;;;;;;;17.59;71.43;99945.56;5077027;28;20052;-61
2022/09/04 05:37:10;;;;;;;0.50;0.50;;;;;;;17.56;71.79;99950.81;5077105;28;20054;-61
2022/09/04 05:39:55;;;;;;;0.82;0.63;;;;;;;17.56;71.83;99953.38;5077025;28;20082;-62
2022/09/04 05:42:44;;;;;;;0.75;0.75;;;;;;;17.58;72.02;99951.59;5077134;28;20098;-62
2022/09/04 05:45:23;;;;;;;0.80;0.80;;;;;;;17.57;72.32;99947.31;5076943;28;20106;-61
2022/09/04 05:48:10;;;;;;;0.93;0.88;;;;;;;17.60;72.21;99955.00;5077199;28;20040;-61
2022/09/04 05:50:54;;;;;;;6.82;0.85;;;;;;;17.65;72.31;99961.75;5076837;28;20044;-61
2022/09/04 05:53:40;;;;;;;0.75;0.70;;;;;;;17.68;72.56;99968.56;5076826;28;20110;-61
2022/09/04 05:56:31;;;;;;;0.65;0.60;;;;;;;17.65;73.44;99966.91;5076695;28;20048;-61
2022/09/04 05:59:16;;;;;;;0.55;0.55;;;;;;;17.64;73.81;99974.69;5076958;28;20491;-61
2022/09/04 06:02:09;;;;;;;1.10;1.02;;;;;;;17.56;74.71;99986.94;5076897;28;20153;-61
2022/09/04 06:05:04;;;;;;;2.13;1.60;;;;;;;17.47;75.31;99992.28;5076500;28;20052;-61
2022/09/04 06:07:42;;;;;;;0.98;0.85;;;;;;;17.42;75.87;100007.84;5076375;28;20076;-61
2022/09/04 06:10:16;;;;;;;0.45;0.45;;;;;;;17.37;76.56;100002.81;5076421;28;20048;-62
2022/09/04 06:13:02;;;;;;;0.95;0.88;;;;;;;17.39;77.02;100011.38;5076325;28;20059;-62
2022/09/04 06:15:40;;;;;;;1.23;1.13;;;;;;;17.30;77.53;100014.16;5076840;28;20071;-61
2022/09/04 06:18:23;;;;;;;1.48;0.88;;;;;;;17.19;78.28;100021.31;5076240;28;20048;-62
2022/09/04 06:21:07;;;;;;;0.68;0.57;;;;;;;17.13;78.79;100018.84;5076429;28;20053;-61
2022/09/04 06:23:56;;;;;;;0.55;0.55;;;;;;;17.09;79.59;100017.22;5076316;28;20045;-61
2022/09/04 06:26:45;;;;;;;0.57;0.55;;;;;;;17.04;79.93;100026.78;5075794;28;20598;-61
2022/09/04 06:29:25;;;;;;;;;;;;;;;17.04;80.45;100034.53;5075508;28;20364;-62
2022/09/04 06:32:10;;;;;;;0.80;0.80;;;;;;;17.03;80.52;100027.69;5076353;28;20010;-62
2022/09/04 06:34:59;;;;;;;0.65;0.65;;;;;;;17.02;80.86;100033.72;5076201;28;20049;-62
2022/09/04 06:37:41;;;;;;;1.38;1.27;;;;;;;17.07;81.29;100029.31;5076095;28;20486;-62
2022/09/04 06:40:32;;;;;;;0.70;0.70;;;;;;;17.16;81.64;100034.25;5076228;28;20048;-62
2022/09/04 06:43:15;;;;;;;1.45;1.05;;;;;;;17.23;81.37;100034.97;5075787;28;20131;-62
2022/09/04 06:45:57;;;;;;;0.65;0.65;;;;;;;17.30;81.09;100042.53;5076671;28;20043;-62
2022/09/04 06:48:43;;;;;;;0.63;0.63;;;;;;;17.41;80.98;100040.59;5075690;28;20214;-62
2022/09/04 06:51:27;;;;;;;0.80;0.80;;;;;;;17.48;81.04;100050.75;5075753;28;20052;-62
2022/09/04 06:54:11;;;;;;;0.63;0.63;;;;;;;17.53;81.31;100052.38;5075812;28;20429;-62
2022/09/04 06:56:58;;;;;;;0.75;0.75;;;;;;;17.55;81.34;100052.34;5075781;28;20520;-62
2022/09/04 06:59:41;;;;;;;0.73;0.63;;;;;;;17.58;81.91;100057.44;5076021;28;20421;-62
2022/09/04 07:02:24;;;;;;;0.75;0.75;;;;;;;17.58;81.65;100060.03;5075514;28;20127;-62
2022/09/04 07:05:08;;;;;;;0.40;0.40;;;;;;;17.62;81.25;100053.91;5075699;28;20049;-62
2022/09/04 07:07:46;;;;;;;1.08;0.95;;;;;;;17.66;80.67;100060.72;5075237;28;20098;-62
2022/09/04 07:10:22;;;;;;;0.95;0.93;;;;;;;17.73;80.84;100072.59;5075277;28;20052;-62
2022/09/04 07:13:16;;;;;;;0.45;0.45;;;;;;;17.80;80.47;100063.81;5075477;28;20581;-62
2022/09/04 07:16:04;;;;;;;0.70;0.70;;;;;;;17.84;80.62;100070.59;5075287;28;20075;-62
2022/09/04 07:18:58;;;;;;;0.98;0.90;;;;;;;17.87;80.48;100073.09;5075423;28;20470;-62
2022/09/04 07:21:36;;;;;;;0.50;0.50;;;;;;;17.85;80.03;100072.28;5075381;28;20132;-62
2022/09/04 07:24:17;;;;;;;1.73;1.38;;;;;;;17.88;79.97;100077.38;5075380;28;20048;-62
2022/09/04 07:26:54;;;;;;;1.30;1.20;;;;;;;17.91;79.85;100072.13;5075250;28;20086;-62
2022/09/04 07:29:33;;;;;;;1.10;1.05;;;;;;;17.93;79.92;100070.34;5074912;28;20082;-62
2022/09/04 07:32:08;;;;;;;0.70;0.60;;;;;;;17.92;79.75;100073.84;5074927;28;20052;-62
2022/09/04 07:34:47;;;;;;;0.52;0.52;;;;;;;17.93;79.24;100071.22;5074918;28;20135;-62
2022/09/04 07:37:26;;;;;;;5.70;0.60;;;;;;;17.95;79.05;100084.06;5074146;28;20135;-62
2022/09/04 07:40:08;;;;;;;0.67;0.67;;;;;;;18.02;79.25;100077.88;5074798;28;20053;-62
2022/09/04 07:42:45;;;;;;;0.60;0.60;;;;;;;18.04;79.14;100092.44;5075261;28;20276;-62
2022/09/04 07:45:28;;;;;;;1.67;0.77;;;;;;;18.00;79.11;100092.56;5074954;28;20131;-62
2022/09/04 07:48:13;;;;;;;0.70;0.70;;;;;;;17.92;79.03;100095.31;5074785;28;20044;-62
2022/09/04 07:51:02;;;;;;;0.80;0.70;;;;;;;17.90;78.92;100097.09;5074860;28;20068;-61
2022/09/04 07:53:48;;;;;;;0.60;0.60;;;;;;;17.92;79.01;100103.06;5074424;28;20057;-62
2022/09/04 07:56:26;;;;;;;0.70;0.65;;;;;;;17.95;79.15;100109.91;5074338;28;20075;-62
2022/09/04 07:59:12;;;;;;;1.17;0.88;;;;;;;17.96;79.38;100102.16;5074385;28;20131;-62
2022/09/04 08:02:03;;;;;;;0.68;0.57;;;;;;;17.92;79.50;100112.59;5074492;28;20044;-62
2022/09/04 08:04:58;;;;;;;1.10;0.95;;;;;;;17.86;79.80;100120.47;5074439;28;20045;-62
2022/09/04 08:07:56;;;;;;;1.40;1.13;;;;;;;17.83;79.98;100117.94;5074812;28;20048;-61
2022/09/04 08:10:31;;;;;;;1.25;0.90;;;;;;;17.90;80.32;100122.09;5073916;28;20048;-61
2022/09/04 08:13:12;;;;;;;1.20;1.10;;;;;;;17.87;80.50;100119.59;5073916;28;20048;-61
2022/09/04 08:15:49;;;;;;;1.13;1.02;;;;;;;17.87;80.69;100124.75;5074043;28;20119;-62
2022/09/04 08:18:45;;;;;;;0.60;0.60;;;;;;;17.89;81.05;100130.72;5074207;28;20074;-62
2022/09/04 08:21:25;;;;;;;0.68;0.65;;;;;;;17.90;81.26;100132.44;5073586;28;20052;-62
2022/09/04 08:24:26;;;;;;;1.15;1.05;;;;;;;17.91;81.56;100134.13;5073821;28;20102;-62
2022/09/04 08:27:09;;;;;;;1.08;1.00;;;;;;;17.99;81.72;100139.97;5074133;28;20094;-62
2022/09/04 08:29:58;;;;;;;0.50;0.50;;;;;;;18.00;81.94;100149.41;5074114;28;20052;-62
2022/09/04 08:32:52;;;;;;;1.60;1.15;;;;;;;18.03;81.64;100149.34;5072393;28;20048;-60
2022/09/04 08:35:31;;;;;;;1.38;1.10;;;;;;;17.99;81.50;100142.56;5065667;28;20044;-62
2022/09/04 08:38:21;;;;;;;1.92;1.75;;;;;;;18.03;81.38;100155.34;5073793;28;20490;-62
2022/09/04 08:41:24;;;;;;;0.55;0.55;;;;;;;18.03;81.45;100150.19;5073891;28;20509;-62
2022/09/04 08:44:18;;;;;;;0.70;0.70;;;;;;;18.08;81.17;100155.25;5073549;28;20047;-62
2022/09/04 08:47:18;;;;;;;0.50;0.50;;;;;;;18.12;80.95;100149.13;5073912;28;20044;-62
2022/09/04 08:50:04;;;;;;;0.55;0.55;;;;;;;18.14;81.07;100151.69;5047357;28;20545;-61
2022/09/04 08:52:56;;;;;;;0.90;0.90;;;;;;;18.18;81.17;100153.28;5073504;28;20102;-61
2022/09/04 08:55:58;;;;;;;0.88;0.88;;;;;;;18.17;81.13;100157.59;5073955;28;20402;-62
2022/09/04 08:59:00;;;;;;;1.35;1.00;;;;;;;18.15;80.99;100154.22;5067547;28;20074;-62
2022/09/04 09:02:04;;;;;;;1.38;1.27;;;;;;;18.19;81.11;100155.81;5072858;28;20037;-62
2022/09/04 09:04:55;;;;;;;0.70;0.70;;;;;;;18.21;81.20;100164.38;5057507;28;20046;-62
2022/09/04 09:07:44;;;;;;;0.95;0.65;;;;;;;18.22;81.53;100166.09;5073453;28;20067;-62
2022/09/04 09:10:32;;;;;;;;;;;;;;;18.30;81.83;100161.59;5073830;28;20099;-62
2022/09/04 09:13:25;;;;;;;1.42;1.27;;;;;;;18.35;81.87;100162.34;5073191;28;19928;-62
2022/09/04 09:16:20;;;;;;;1.48;0.70;;;;;;;18.35;81.77;100166.66;5073150;28;20052;-62
2022/09/04 09:19:11;;;;;;;1.42;0.80;;;;;;;18.37;81.57;100170.91;5073197;28;20044;-62
2022/09/04 09:21:45;;;;;;;1.20;1.10;;;;;;;18.42;81.01;100170.78;5073295;28;20048;-62
2022/09/04 09:24:37;;;;;;;0.55;0.55;;;;;;;18.41;80.66;100176.84;5073160;28;20086;-62
2022/09/04 09:27:40;;;;;;;1.20;0.98;;;;;;;18.42;80.31;100174.22;5073010;28;20048;-62
2022/09/04 09:30:15;;;;;;;5.15;2.25;;;;;;;18.44;80.25;100181.94;5072500;28;20095;-62
2022/09/04 09:33:14;;;;;;;1.48;0.88;;;;;;;18.50;80.82;100180.06;5072847;28;20110;-63
2022/09/04 09:36:11;;;;;;;1.20;1.02;;;;;;;18.56;80.92;100182.53;5073440;28;20087;-62
2022/09/04 09:39:10;;;;;;;2.47;1.50;;;;;;;18.57;81.38;100191.13;5051857;28;20044;-62
2022/09/04 09:42:14;;;;;;;1.08;0.98;;;;;;;18.53;80.40;100181.72;5073360;28;20127;-62
2022/09/04 09:45:06;;;;;;;0.88;0.85;;;;;;;18.45;79.93;100189.63;5034135;28;20082;-62
2022/09/04 09:48:02;;;;;;;1.30;1.13;;;;;;;18.42;79.99;100188.88;5072119;28;20048;-62
2022/09/04 09:51:03;;;;;;;1.23;1.13;;;;;;;18.44;79.54;100185.38;5072834;28;20048;-62
2022/09/04 09:54:05;;;;;;;2.08;1.08;;;;;;;18.47;79.51;100180.16;5073151;28;20140;-61
2022/09/04 09:57:00;;;;;;;1.25;1.05;;;;;;;18.52;79.10;100183.47;5072590;28;20128;-62
2022/09/04 10:00:01;;;;;;;0.65;0.63;;;;;;;18.54;78.54;100180.84;5072871;28;20037;-61
2022/09/04 10:03:01;;;;;;;2.00;1.20;;;;;;;18.58;78.31;100175.56;5076809;28;20052;-62
2022/09/04 10:05:54;;;;;;;1.27;1.05;;;;;;;18.68;78.12;100176.19;5076362;28;20048;-61
2022/09/04 10:08:53;;;;;;;3.53;1.25;;;;;;;18.76;78.23;100181.16;5059893;28;20056;-61
2022/09/04 10:11:40;;;;;;;1.00;0.77;;;;;;;18.81;78.12;100166.38;5076373;28;20075;-61
2022/09/04 10:14:31;;;;;;;1.25;1.15;;;;;;;18.90;78.08;100176.47;5076231;28;20045;-61
2022/09/04 10:17:32;;;;;;;1.33;1.05;;;;;;;18.92;77.95;100164.34;5076204;28;20490;-61
2022/09/04 10:20:26;;;;;;;0.77;0.70;;;;;;;18.90;77.83;100164.41;5076049;28;20394;-61
2022/09/04 10:23:31;;;;;;;6.25;0.90;;;;;;;19.03;77.72;100167.47;5076477;28;20048;-61
2022/09/04 10:26:22;;;;;;;0.77;0.77;;;;;;;19.15;77.43;100156.78;5076235;28;20056;-62
2022/09/04 10:29:20;;;;;;;0.60;0.60;;;;;;;19.29;77.10;100162.44;5076512;28;20047;-61
2022/09/04 10:32:14;;;;;;;1.17;0.90;;;;;;;19.32;76.57;100160.59;5068646;28;20075;-61
2022/09/04 10:35:03;;;;;;;0.80;0.80;;;;;;;19.45;76.67;100166.31;5076056;28;20043;-62
2022/09/04 10:37:53;;;;;;;2.35;1.48;;;;;;;19.54;76.41;100158.28;5076207;28;20091;-61
2022/09/04 10:40:34;;;;;;;0.73;0.68;;;;;;;19.54;76.30;100160.88;5075923;28;20063;-61
2022/09/04 10:43:30;;;;;;;1.13;0.88;;;;;;;19.55;76.02;100162.56;5075850;28;20048;-61
2022/09/04 10:46:09;;;;;;;0.70;0.70;;;;;;;19.59;75.73;100159.00;5075977;28;20040;-61
2022/09/04 10:49:19;;;;;;;0.75;0.65;;;;;;;19.68;75.56;100153.53;5075656;28;20478;-61
2022/09/04 10:52:21;;;;;;;1.17;1.08;;;;;;;19.74;75.06;100155.94;5075796;28;20056;-61
2022/09/04 10:55:13;;;;;;;1.02;0.85;;;;;;;19.85;74.78;100159.06;5073898;28;20068;-61
2022/09/04 10:57:59;;;;;;;0.70;0.70;;;;;;;19.86;74.78;100153.00;5075817;28;20143;-61
2022/09/04 11:00:35;;;;;;;1.02;0.95;;;;;;;20.01;74.42;100146.47;5075766;28;20516;-61
2022/09/04 11:03:34;;;;;;;2.08;1.45;;;;;;;20.08;74.11;100149.72;5075491;28;20106;-61
2022/09/04 11:06:25;;;;;;;0.60;0.60;;;;;;;20.11;74.06;100141.84;5075392;28;20055;-61
2022/09/04 11:09:19;;;;;;;1.00;0.98;;;;;;;20.16;73.77;100139.94;5075369;28;20102;-61
2022/09/04 11:12:11;;;;;;;1.45;0.82;;;;;;;20.26;73.73;100136.19;5075222;28;20109;-61
2022/09/04 11:15:11;;;;;;;1.40;1.30;;;;;;;20.35;73.57;100141.06;5073243;28;20070;-61
2022/09/04 11:18:02;;;;;;;0.70;0.70;;;;;;;20.38;73.54;100147.00;5075236;28;20048;-61
2022/09/04 11:21:01;;;;;;;0.60;0.60;;;;;;;20.45;73.52;100150.22;5075494;28;20053;-61
2022/09/04 11:23:52;;;;;;;0.82;0.73;;;;;;;20.52;73.34;100149.13;5075127;28;20079;-61
2022/09/04 11:26:49;;;;;;;1.00;0.98;;;;;;;20.59;73.09;100142.81;5074986;28;20051;-61
2022/09/04 11:29:40;;;;;;;2.42;0.57;;;;;;;20.62;73.18;100158.28;5075163;28;20083;-62
2022/09/04 11:32:30;;;;;;;1.38;0.63;;;;;;;20.64;73.07;100146.13;5075375;28;20040;-61
2022/09/04 11:35:21;;;;;;;3.90;1.15;;;;;;;20.70;72.75;100145.91;5075329;28;20068;-61
2022/09/04 11:38:23;;;;;;;1.08;0.98;;;;;;;20.72;72.50;100146.72;5075000;28;20048;-61
2022/09/04 11:41:21;;;;;;;0.77;0.70;;;;;;;20.64;72.02;100139.19;5070649;28;20055;-61
2022/09/04 11:44:21;;;;;;;0.80;0.80;;;;;;;20.84;71.97;100150.63;5074875;28;20103;-61
2022/09/04 11:47:12;;;;;;;1.08;0.82;;;;;;;20.90;72.15;100146.06;5074508;28;20054;-61
2022/09/04 11:49:58;;;;;;;1.35;0.90;;;;;;;20.93;71.72;100151.16;5074516;28;20071;-61
2022/09/04 11:52:49;;;;;;;0.98;0.85;;;;;;;20.92;71.39;100159.84;5074402;28;20045;-61
2022/09/04 11:55:40;;;;;;;1.40;1.02;;;;;;;20.92;71.25;100149.47;5074391;28;20124;-62
2022/09/04 11:58:30;;;;;;;0.70;0.70;;;;;;;20.87;71.26;100151.38;5074307;28;20058;-61
2022/09/04 12:01:19;;;;;;;0.88;0.80;;;;;;;20.98;71.88;100149.25;5074546;28;20078;-61
2022/09/04 12:04:22;;;;;;;1.02;0.98;;;;;;;20.94;71.61;100144.22;5074157;28;20088;-62
2022/09/04 12:07:12;;;;;;;2.42;1.23;;;;;;;21.01;71.70;100154.31;5074226;28;20072;-62
2022/09/04 12:10:01;;;;;;;1.27;1.10;;;;;;;21.01;70.73;100146.53;5074146;28;20127;-61
2022/09/04 12:12:56;;;;;;;0.43;0.43;;;;;;;21.05;70.98;100142.94;5074124;28;20143;-62
2022/09/04 12:15:56;;;;;;;1.13;1.02;;;;;;;21.11;70.98;100145.34;5074506;28;20114;-62
2022/09/04 12:18:53;;;;;;;1.20;1.10;;;;;;;21.17;70.35;100145.09;5074304;28;20578;-62
2022/09/04 12:21:51;;;;;;;0.80;0.80;;;;;;;21.19;70.43;100153.69;5073913;28;20059;-61
2022/09/04 12:24:50;;;;;;;0.60;0.60;;;;;;;21.18;70.10;100154.59;5041604;28;20094;-63
2022/09/04 12:27:48;;;;;;;0.50;0.50;;;;;;;21.27;71.36;100161.19;5074110;28;20044;-62
2022/09/04 12:30:22;;;;;;;0.60;0.60;;;;;;;21.27;71.87;100167.25;5073827;28;20098;-62
2022/09/04 12:33:22;;;;;;;0.68;0.68;;;;;;;21.24;71.55;100167.34;5074146;28;20490;-62
2022/09/04 12:36:23;;;;;;;2.67;0.80;;;;;;;21.21;70.94;100162.25;5073859;28;20059;-61
2022/09/04 12:39:17;;;;;;;1.52;1.08;;;;;;;21.24;70.88;100159.56;5069188;28;20113;-62
2022/09/04 12:41:54;;;;;;;1.20;0.63;;;;;;;21.28;70.89;100162.91;5074199;28;20464;-62
2022/09/04 12:44:38;;;;;;;1.38;1.00;;;;;;;21.34;70.82;100153.13;5073656;28;20098;-62
2022/09/04 12:47:21;;;;;;;0.65;0.65;;;;;;;21.47;70.90;100155.28;5073862;28;20052;-62
2022/09/04 12:50:09;;;;;;;1.23;0.85;;;;;;;21.66;71.18;100153.66;5074195;28;20062;-61
2022/09/04 12:52:56;;;;;;;0.60;0.60;;;;;;;21.65;70.46;100157.16;5073789;28;20097;-61
2022/09/04 12:55:37;;;;;;;0.75;0.57;;;;;;;21.65;69.89;100164.97;5073840;28;20118;-69